sensor_id;sensor_type;location;lat;lon;timestamp;temperature;humidity
24412;DHT22;12544;46.760;15.942;2023-07-20T00:01:08;20.40;99.90
24412;DHT22;12544;46.760;15.942;2023-07-20T00:03:33;20.50;99.90
24412;DHT22;12544;46.760;15.942;2023-07-20T00:05:59;20.40;99.90
24412;DHT22;12544;46.760;15.942;2023-07-20T00:08:24;20.40;99.90
24412;DHT22;12544;46.760;15.942;2023-07-20T00:10:50;20.50;99.90
24412;DHT22;12544;46.760;15.942;2023-07-20T00:13:16;20.40;99.90
24412;DHT22;12544;46.760;15.942;2023-07-20T00:15:44;20.40;99.90
24412;DHT22;12544;46.760;15.942;2023-07-20T00:18:09;20.40;99.90
24412;DHT22;12544;46.760;15.942;2023-07-20T00:20:35;20.40;99.90
24412;DHT22;12544;46.760;15.942;2023-07-20T00:23:01;20.40;99.90
24412;DHT22;12544;46.760;15.942;2023-07-20T00:25:26;20.30;99.90
24412;DHT22;12544;46.760;15.942;2023-07-20T00:27:52;20.30;99.90
24412;DHT22;12544;46.760;15.942;2023-07-20T00:30:18;20.30;99.90
24412;DHT22;12544;46.760;15.942;2023-07-20T00:32:44;20.40;99.90
24412;DHT22;12544;46.760;15.942;2023-07-20T00:35:10;20.30;99.90
24412;DHT22;12544;46.760;15.942;2023-07-20T00:37:39;20.30;99.90
24412;DHT22;12544;46.760;15.942;2023-07-20T00:40:06;20.30;99.90
24412;DHT22;12544;46.760;15.942;2023-07-20T00:42:32;20.20;99.90
24412;DHT22;12544;46.760;15.942;2023-07-20T00:44:58;20.20;99.90
24412;DHT22;12544;46.760;15.942;2023-07-20T00:47:24;20.20;99.90
24412;DHT22;12544;46.760;15.942;2023-07-20T00:49:50;20.20;99.90
24412;DHT22;12544;46.760;15.942;2023-07-20T00:52:19;20.10;99.90
24412;DHT22;12544;46.760;15.942;2023-07-20T00:54:45;20.10;99.90
24412;DHT22;12544;46.760;15.942;2023-07-20T00:57:14;20.10;99.90
24412;DHT22;12544;46.760;15.942;2023-07-20T00:59:40;20.10;99.90
24412;DHT22;12544;46.760;15.942;2023-07-20T01:02:05;20.10;99.90
24412;DHT22;12544;46.760;15.942;2023-07-20T01:04:31;20.10;99.90
24412;DHT22;12544;46.760;15.942;2023-07-20T01:12:08;20.10;99.90
24412;DHT22;12544;46.760;15.942;2023-07-20T01:14:36;20.10;99.90
24412;DHT22;12544;46.760;15.942;2023-07-20T01:17:02;20.10;99.90
24412;DHT22;12544;46.760;15.942;2023-07-20T01:19:28;20.20;99.90
24412;DHT22;12544;46.760;15.942;2023-07-20T01:21:59;20.10;99.90
24412;DHT22;12544;46.760;15.942;2023-07-20T01:30:50;19.80;99.90
24412;DHT22;12544;46.760;15.942;2023-07-20T01:33:17;19.80;99.90
24412;DHT22;12544;46.760;15.942;2023-07-20T01:35:45;19.80;99.90
24412;DHT22;12544;46.760;15.942;2023-07-20T01:38:12;19.80;99.90
24412;DHT22;12544;46.760;15.942;2023-07-20T01:40:40;19.70;99.90
24412;DHT22;12544;46.760;15.942;2023-07-20T01:43:06;19.80;99.90
24412;DHT22;12544;46.760;15.942;2023-07-20T01:45:31;19.80;99.90
24412;DHT22;12544;46.760;15.942;2023-07-20T01:47:57;19.80;99.90
24412;DHT22;12544;46.760;15.942;2023-07-20T01:50:22;19.90;99.90
24412;DHT22;12544;46.760;15.942;2023-07-20T01:52:48;19.80;99.90
24412;DHT22;12544;46.760;15.942;2023-07-20T01:55:14;19.80;99.90
24412;DHT22;12544;46.760;15.942;2023-07-20T01:57:40;19.80;99.90
24412;DHT22;12544;46.760;15.942;2023-07-20T02:00:06;19.90;99.90
24412;DHT22;12544;46.760;15.942;2023-07-20T02:02:32;19.90;99.90
24412;DHT22;12544;46.760;15.942;2023-07-20T02:04:58;19.90;99.90
24412;DHT22;12544;46.760;15.942;2023-07-20T02:07:23;19.90;99.90
24412;DHT22;12544;46.760;15.942;2023-07-20T02:09:49;20.00;99.90
24412;DHT22;12544;46.760;15.942;2023-07-20T02:12:15;20.00;99.90
24412;DHT22;12544;46.760;15.942;2023-07-20T02:14:40;19.90;99.90
24412;DHT22;12544;46.760;15.942;2023-07-20T02:17:06;19.90;99.90
24412;DHT22;12544;46.760;15.942;2023-07-20T02:19:31;19.90;99.90
24412;DHT22;12544;46.760;15.942;2023-07-20T02:21:57;19.90;99.90
24412;DHT22;12544;46.760;15.942;2023-07-20T02:24:23;19.90;99.90
24412;DHT22;12544;46.760;15.942;2023-07-20T02:26:50;19.90;99.90
24412;DHT22;12544;46.760;15.942;2023-07-20T02:29:16;19.90;99.90
24412;DHT22;12544;46.760;15.942;2023-07-20T02:31:41;19.90;99.90
24412;DHT22;12544;46.760;15.942;2023-07-20T02:34:08;19.80;99.90
24412;DHT22;12544;46.760;15.942;2023-07-20T02:36:35;19.80;99.90
24412;DHT22;12544;46.760;15.942;2023-07-20T02:39:00;19.80;99.90
24412;DHT22;12544;46.760;15.942;2023-07-20T02:41:27;19.80;99.90
24412;DHT22;12544;46.760;15.942;2023-07-20T02:43:53;19.80;99.90
24412;DHT22;12544;46.760;15.942;2023-07-20T02:46:19;19.80;99.90
24412;DHT22;12544;46.760;15.942;2023-07-20T02:48:44;19.80;99.90
24412;DHT22;12544;46.760;15.942;2023-07-20T02:51:10;19.80;99.90
24412;DHT22;12544;46.760;15.942;2023-07-20T02:53:36;19.80;99.90
24412;DHT22;12544;46.760;15.942;2023-07-20T02:56:02;19.90;99.90
24412;DHT22;12544;46.760;15.942;2023-07-20T02:58:27;19.90;99.90
24412;DHT22;12544;46.760;15.942;2023-07-20T03:00:53;19.90;99.90
24412;DHT22;12544;46.760;15.942;2023-07-20T03:03:19;19.90;99.90
24412;DHT22;12544;46.760;15.942;2023-07-20T03:05:45;19.90;99.90
24412;DHT22;12544;46.760;15.942;2023-07-20T03:08:11;19.90;99.90
24412;DHT22;12544;46.760;15.942;2023-07-20T03:10:40;19.90;99.90
24412;DHT22;12544;46.760;15.942;2023-07-20T03:13:06;19.80;99.90
24412;DHT22;12544;46.760;15.942;2023-07-20T03:15:32;19.70;99.90
24412;DHT22;12544;46.760;15.942;2023-07-20T03:17:58;19.70;99.90
24412;DHT22;12544;46.760;15.942;2023-07-20T03:20:24;19.70;99.90
24412;DHT22;12544;46.760;15.942;2023-07-20T03:22:50;19.80;99.90
24412;DHT22;12544;46.760;15.942;2023-07-20T03:25:15;19.80;99.90
24412;DHT22;12544;46.760;15.942;2023-07-20T03:27:41;20.00;99.90
24412;DHT22;12544;46.760;15.942;2023-07-20T03:30:07;20.00;99.90
24412;DHT22;12544;46.760;15.942;2023-07-20T03:32:35;20.10;99.90
24412;DHT22;12544;46.760;15.942;2023-07-20T03:35:01;20.20;99.90
24412;DHT22;12544;46.760;15.942;2023-07-20T03:37:26;20.20;99.90
24412;DHT22;12544;46.760;15.942;2023-07-20T03:39:52;20.20;99.90
24412;DHT22;12544;46.760;15.942;2023-07-20T03:42:18;20.20;99.90
24412;DHT22;12544;46.760;15.942;2023-07-20T03:44:43;20.20;99.90
24412;DHT22;12544;46.760;15.942;2023-07-20T03:47:09;20.20;99.90
24412;DHT22;12544;46.760;15.942;2023-07-20T03:49:35;20.10;99.90
24412;DHT22;12544;46.760;15.942;2023-07-20T03:52:01;20.00;99.90
24412;DHT22;12544;46.760;15.942;2023-07-20T03:54:29;20.00;99.90
24412;DHT22;12544;46.760;15.942;2023-07-20T03:56:54;20.00;99.90
24412;DHT22;12544;46.760;15.942;2023-07-20T03:59:20;19.90;99.90
24412;DHT22;12544;46.760;15.942;2023-07-20T04:01:46;19.90;99.90
24412;DHT22;12544;46.760;15.942;2023-07-20T04:04:13;20.00;99.90
24412;DHT22;12544;46.760;15.942;2023-07-20T04:06:39;19.90;99.90
24412;DHT22;12544;46.760;15.942;2023-07-20T04:09:04;19.90;99.90
24412;DHT22;12544;46.760;15.942;2023-07-20T04:11:30;19.80;99.90
24412;DHT22;12544;46.760;15.942;2023-07-20T04:13:56;19.80;99.90
24412;DHT22;12544;46.760;15.942;2023-07-20T04:16:22;19.80;99.90
24412;DHT22;12544;46.760;15.942;2023-07-20T04:18:47;19.80;99.90
24412;DHT22;12544;46.760;15.942;2023-07-20T04:21:13;19.80;99.90
24412;DHT22;12544;46.760;15.942;2023-07-20T04:23:38;19.80;99.90
24412;DHT22;12544;46.760;15.942;2023-07-20T04:26:04;19.70;99.90
24412;DHT22;12544;46.760;15.942;2023-07-20T04:28:32;19.70;99.90
24412;DHT22;12544;46.760;15.942;2023-07-20T04:31:10;19.80;99.90
24412;DHT22;12544;46.760;15.942;2023-07-20T04:33:36;19.80;99.90
24412;DHT22;12544;46.760;15.942;2023-07-20T04:36:02;19.80;99.90
24412;DHT22;12544;46.760;15.942;2023-07-20T04:38:28;19.80;99.90
24412;DHT22;12544;46.760;15.942;2023-07-20T04:40:54;19.80;99.90
24412;DHT22;12544;46.760;15.942;2023-07-20T04:43:19;19.90;99.90
24412;DHT22;12544;46.760;15.942;2023-07-20T04:45:45;19.90;99.90
24412;DHT22;12544;46.760;15.942;2023-07-20T04:48:13;20.00;99.90
24412;DHT22;12544;46.760;15.942;2023-07-20T04:50:42;20.10;99.90
24412;DHT22;12544;46.760;15.942;2023-07-20T04:53:10;20.10;99.90
24412;DHT22;12544;46.760;15.942;2023-07-20T04:55:36;20.10;99.90
24412;DHT22;12544;46.760;15.942;2023-07-20T04:58:03;20.10;99.90
24412;DHT22;12544;46.760;15.942;2023-07-20T05:00:29;20.10;99.90
24412;DHT22;12544;46.760;15.942;2023-07-20T05:02:55;20.20;99.90
24412;DHT22;12544;46.760;15.942;2023-07-20T05:05:22;20.10;99.90
24412;DHT22;12544;46.760;15.942;2023-07-20T05:07:47;20.10;99.90
24412;DHT22;12544;46.760;15.942;2023-07-20T05:10:13;20.10;99.90
24412;DHT22;12544;46.760;15.942;2023-07-20T05:12:39;20.20;99.90
24412;DHT22;12544;46.760;15.942;2023-07-20T05:15:04;20.20;99.90
24412;DHT22;12544;46.760;15.942;2023-07-20T05:17:30;20.30;99.90
24412;DHT22;12544;46.760;15.942;2023-07-20T05:19:56;20.30;99.90
24412;DHT22;12544;46.760;15.942;2023-07-20T05:22:21;20.30;99.90
24412;DHT22;12544;46.760;15.942;2023-07-20T05:24:47;20.40;99.90
24412;DHT22;12544;46.760;15.942;2023-07-20T05:27:13;20.40;99.90
24412;DHT22;12544;46.760;15.942;2023-07-20T05:29:46;20.50;99.90
24412;DHT22;12544;46.760;15.942;2023-07-20T05:32:14;20.50;99.90
24412;DHT22;12544;46.760;15.942;2023-07-20T05:34:40;20.50;99.90
24412;DHT22;12544;46.760;15.942;2023-07-20T05:37:10;20.50;99.90
24412;DHT22;12544;46.760;15.942;2023-07-20T05:39:36;20.50;99.90
24412;DHT22;12544;46.760;15.942;2023-07-20T05:42:01;20.60;99.90
24412;DHT22;12544;46.760;15.942;2023-07-20T05:44:27;20.60;99.90
24412;DHT22;12544;46.760;15.942;2023-07-20T05:46:52;20.60;99.90
24412;DHT22;12544;46.760;15.942;2023-07-20T05:49:18;20.70;99.90
24412;DHT22;12544;46.760;15.942;2023-07-20T05:51:44;20.80;99.90
24412;DHT22;12544;46.760;15.942;2023-07-20T05:54:09;20.90;99.90
24412;DHT22;12544;46.760;15.942;2023-07-20T05:56:35;20.90;99.90
24412;DHT22;12544;46.760;15.942;2023-07-20T05:59:00;21.00;99.90
24412;DHT22;12544;46.760;15.942;2023-07-20T06:01:26;21.00;99.90
24412;DHT22;12544;46.760;15.942;2023-07-20T06:03:53;21.00;99.90
24412;DHT22;12544;46.760;15.942;2023-07-20T06:06:19;21.10;99.90
24412;DHT22;12544;46.760;15.942;2023-07-20T06:08:45;21.10;99.90
24412;DHT22;12544;46.760;15.942;2023-07-20T06:11:11;21.20;99.90
24412;DHT22;12544;46.760;15.942;2023-07-20T06:13:36;21.20;99.90
24412;DHT22;12544;46.760;15.942;2023-07-20T06:16:02;21.30;99.90
24412;DHT22;12544;46.760;15.942;2023-07-20T06:18:29;21.30;99.90
24412;DHT22;12544;46.760;15.942;2023-07-20T06:20:56;21.40;99.90
24412;DHT22;12544;46.760;15.942;2023-07-20T06:23:22;21.40;99.90
24412;DHT22;12544;46.760;15.942;2023-07-20T06:25:48;21.40;99.90
24412;DHT22;12544;46.760;15.942;2023-07-20T06:28:14;21.40;99.90
24412;DHT22;12544;46.760;15.942;2023-07-20T06:30:40;21.40;99.90
24412;DHT22;12544;46.760;15.942;2023-07-20T06:33:06;21.50;99.90
24412;DHT22;12544;46.760;15.942;2023-07-20T06:35:33;21.60;99.90
24412;DHT22;12544;46.760;15.942;2023-07-20T06:37:59;21.60;99.90
24412;DHT22;12544;46.760;15.942;2023-07-20T06:40:26;21.70;99.90
24412;DHT22;12544;46.760;15.942;2023-07-20T06:42:51;21.70;99.90
24412;DHT22;12544;46.760;15.942;2023-07-20T06:45:17;21.70;99.90
24412;DHT22;12544;46.760;15.942;2023-07-20T06:47:43;21.70;99.90
24412;DHT22;12544;46.760;15.942;2023-07-20T06:50:09;21.70;99.90
24412;DHT22;12544;46.760;15.942;2023-07-20T06:52:36;21.80;99.90
24412;DHT22;12544;46.760;15.942;2023-07-20T06:55:01;21.80;99.90
24412;DHT22;12544;46.760;15.942;2023-07-20T06:57:27;21.80;99.90
24412;DHT22;12544;46.760;15.942;2023-07-20T06:59:53;21.90;99.90
24412;DHT22;12544;46.760;15.942;2023-07-20T07:02:19;22.00;99.90
24412;DHT22;12544;46.760;15.942;2023-07-20T07:04:45;22.10;99.90
24412;DHT22;12544;46.760;15.942;2023-07-20T07:07:14;22.20;99.90
24412;DHT22;12544;46.760;15.942;2023-07-20T07:09:40;22.30;99.90
24412;DHT22;12544;46.760;15.942;2023-07-20T07:12:06;22.40;99.90
24412;DHT22;12544;46.760;15.942;2023-07-20T07:14:31;22.50;99.90
24412;DHT22;12544;46.760;15.942;2023-07-20T07:16:57;22.50;99.90
24412;DHT22;12544;46.760;15.942;2023-07-20T07:19:22;22.60;99.90
24412;DHT22;12544;46.760;15.942;2023-07-20T07:21:48;22.60;99.90
24412;DHT22;12544;46.760;15.942;2023-07-20T07:24:14;22.60;99.90
24412;DHT22;12544;46.760;15.942;2023-07-20T07:26:39;22.60;99.90
24412;DHT22;12544;46.760;15.942;2023-07-20T07:29:05;22.70;99.90
24412;DHT22;12544;46.760;15.942;2023-07-20T07:31:34;22.70;99.90
24412;DHT22;12544;46.760;15.942;2023-07-20T07:34:00;22.80;99.90
24412;DHT22;12544;46.760;15.942;2023-07-20T07:36:26;22.80;99.90
24412;DHT22;12544;46.760;15.942;2023-07-20T07:38:51;22.90;99.90
24412;DHT22;12544;46.760;15.942;2023-07-20T07:41:17;23.00;99.90
24412;DHT22;12544;46.760;15.942;2023-07-20T07:43:43;23.10;99.90
24412;DHT22;12544;46.760;15.942;2023-07-20T07:46:11;23.20;99.90
24412;DHT22;12544;46.760;15.942;2023-07-20T07:48:37;23.20;99.90
24412;DHT22;12544;46.760;15.942;2023-07-20T07:51:03;23.30;99.90
24412;DHT22;12544;46.760;15.942;2023-07-20T07:53:29;23.20;99.90
24412;DHT22;12544;46.760;15.942;2023-07-20T07:55:54;23.30;99.90
24412;DHT22;12544;46.760;15.942;2023-07-20T07:58:20;23.40;99.90
24412;DHT22;12544;46.760;15.942;2023-07-20T08:00:46;23.50;99.90
24412;DHT22;12544;46.760;15.942;2023-07-20T08:03:13;23.60;99.90
24412;DHT22;12544;46.760;15.942;2023-07-20T08:05:39;23.80;99.90
24412;DHT22;12544;46.760;15.942;2023-07-20T08:08:04;23.90;99.90
24412;DHT22;12544;46.760;15.942;2023-07-20T08:10:30;24.10;99.90
24412;DHT22;12544;46.760;15.942;2023-07-20T08:13:03;24.30;99.90
24412;DHT22;12544;46.760;15.942;2023-07-20T08:15:29;24.40;99.90
24412;DHT22;12544;46.760;15.942;2023-07-20T08:17:54;24.60;99.90
24412;DHT22;12544;46.760;15.942;2023-07-20T08:20:20;24.70;99.90
24412;DHT22;12544;46.760;15.942;2023-07-20T08:22:54;24.80;99.90
24412;DHT22;12544;46.760;15.942;2023-07-20T08:25:20;25.00;99.90
24412;DHT22;12544;46.760;15.942;2023-07-20T08:27:46;25.10;99.90
24412;DHT22;12544;46.760;15.942;2023-07-20T08:30:13;25.20;99.90
24412;DHT22;12544;46.760;15.942;2023-07-20T08:32:38;25.30;99.90
24412;DHT22;12544;46.760;15.942;2023-07-20T08:35:07;25.40;99.90
24412;DHT22;12544;46.760;15.942;2023-07-20T08:37:33;25.50;99.90
24412;DHT22;12544;46.760;15.942;2023-07-20T08:39:58;25.50;99.90
24412;DHT22;12544;46.760;15.942;2023-07-20T08:42:24;25.50;99.90
24412;DHT22;12544;46.760;15.942;2023-07-20T08:44:52;25.50;99.90
24412;DHT22;12544;46.760;15.942;2023-07-20T08:47:20;25.50;99.90
24412;DHT22;12544;46.760;15.942;2023-07-20T08:49:50;25.50;99.90
24412;DHT22;12544;46.760;15.942;2023-07-20T08:52:16;25.40;99.90
24412;DHT22;12544;46.760;15.942;2023-07-20T08:54:42;25.40;99.90
24412;DHT22;12544;46.760;15.942;2023-07-20T08:57:08;25.40;99.90
24412;DHT22;12544;46.760;15.942;2023-07-20T08:59:40;25.40;99.90
24412;DHT22;12544;46.760;15.942;2023-07-20T09:02:09;25.50;99.90
24412;DHT22;12544;46.760;15.942;2023-07-20T09:04:38;25.60;99.90
24412;DHT22;12544;46.760;15.942;2023-07-20T09:07:04;25.80;99.90
24412;DHT22;12544;46.760;15.942;2023-07-20T09:09:29;25.90;99.90
24412;DHT22;12544;46.760;15.942;2023-07-20T09:11:55;26.10;99.90
24412;DHT22;12544;46.760;15.942;2023-07-20T09:14:23;26.20;99.90
24412;DHT22;12544;46.760;15.942;2023-07-20T09:16:55;26.40;99.90
24412;DHT22;12544;46.760;15.942;2023-07-20T09:19:21;26.50;99.90
24412;DHT22;12544;46.760;15.942;2023-07-20T09:22:13;26.40;99.90
24412;DHT22;12544;46.760;15.942;2023-07-20T09:24:39;26.40;99.90
24412;DHT22;12544;46.760;15.942;2023-07-20T09:27:22;26.40;99.90
24412;DHT22;12544;46.760;15.942;2023-07-20T09:29:48;26.40;99.90
24412;DHT22;12544;46.760;15.942;2023-07-20T09:32:21;26.50;99.90
24412;DHT22;12544;46.760;15.942;2023-07-20T09:34:47;26.60;99.90
24412;DHT22;12544;46.760;15.942;2023-07-20T09:37:22;26.60;99.90
24412;DHT22;12544;46.760;15.942;2023-07-20T09:39:48;26.60;99.90
24412;DHT22;12544;46.760;15.942;2023-07-20T09:42:16;26.60;99.90
24412;DHT22;12544;46.760;15.942;2023-07-20T09:44:44;26.70;99.90
24412;DHT22;12544;46.760;15.942;2023-07-20T09:47:10;26.90;99.90
24412;DHT22;12544;46.760;15.942;2023-07-20T09:49:42;27.00;99.90
24412;DHT22;12544;46.760;15.942;2023-07-20T09:52:11;27.10;99.90
24412;DHT22;12544;46.760;15.942;2023-07-20T09:54:40;27.20;99.90
24412;DHT22;12544;46.760;15.942;2023-07-20T09:57:09;27.10;99.90
24412;DHT22;12544;46.760;15.942;2023-07-20T09:59:42;27.20;99.90
24412;DHT22;12544;46.760;15.942;2023-07-20T10:02:13;27.30;99.90
24412;DHT22;12544;46.760;15.942;2023-07-20T10:04:43;27.20;99.90
24412;DHT22;12544;46.760;15.942;2023-07-20T10:07:10;27.30;99.90
24412;DHT22;12544;46.760;15.942;2023-07-20T10:09:39;27.30;99.90
24412;DHT22;12544;46.760;15.942;2023-07-20T10:12:16;27.40;99.90
24412;DHT22;12544;46.760;15.942;2023-07-20T10:14:53;27.50;99.50
24412;DHT22;12544;46.760;15.942;2023-07-20T10:17:21;27.70;99.90
24412;DHT22;12544;46.760;15.942;2023-07-20T10:19:50;27.90;99.90
24412;DHT22;12544;46.760;15.942;2023-07-20T10:22:25;27.90;99.90
24412;DHT22;12544;46.760;15.942;2023-07-20T10:24:52;27.90;99.90
24412;DHT22;12544;46.760;15.942;2023-07-20T10:27:24;28.00;99.40
24412;DHT22;12544;46.760;15.942;2023-07-20T10:29:51;28.20;99.90
24412;DHT22;12544;46.760;15.942;2023-07-20T10:32:17;28.20;97.30
24412;DHT22;12544;46.760;15.942;2023-07-20T10:34:50;28.30;98.30
24412;DHT22;12544;46.760;15.942;2023-07-20T10:40:34;28.70;98.80
24412;DHT22;12544;46.760;15.942;2023-07-20T10:43:07;28.80;96.50
24412;DHT22;12544;46.760;15.942;2023-07-20T10:45:41;29.00;96.30
24412;DHT22;12544;46.760;15.942;2023-07-20T10:48:18;29.00;96.50
24412;DHT22;12544;46.760;15.942;2023-07-20T10:50:45;29.00;97.50
24412;DHT22;12544;46.760;15.942;2023-07-20T10:53:13;28.90;97.40
24412;DHT22;12544;46.760;15.942;2023-07-20T10:55:41;28.90;97.70
24412;DHT22;12544;46.760;15.942;2023-07-20T10:58:12;28.90;97.70
24412;DHT22;12544;46.760;15.942;2023-07-20T11:00:58;28.90;98.30
24412;DHT22;12544;46.760;15.942;2023-07-20T11:03:36;29.10;99.80
24412;DHT22;12544;46.760;15.942;2023-07-20T11:06:30;29.30;96.70
24412;DHT22;12544;46.760;15.942;2023-07-20T11:09:15;29.50;96.80
24412;DHT22;12544;46.760;15.942;2023-07-20T11:11:46;29.70;95.40
24412;DHT22;12544;46.760;15.942;2023-07-20T11:14:25;29.80;96.70
24412;DHT22;12544;46.760;15.942;2023-07-20T11:16:52;29.80;95.50
24412;DHT22;12544;46.760;15.942;2023-07-20T11:19:22;29.80;97.50
24412;DHT22;12544;46.760;15.942;2023-07-20T11:21:58;29.80;93.70
24412;DHT22;12544;46.760;15.942;2023-07-20T11:24:24;29.80;95.60
24412;DHT22;12544;46.760;15.942;2023-07-20T11:26:53;29.80;94.80
24412;DHT22;12544;46.760;15.942;2023-07-20T11:29:20;29.70;92.50
24412;DHT22;12544;46.760;15.942;2023-07-20T11:31:47;29.60;93.50
24412;DHT22;12544;46.760;15.942;2023-07-20T11:34:13;29.60;92.50
24412;DHT22;12544;46.760;15.942;2023-07-20T11:36:40;29.70;93.50
24412;DHT22;12544;46.760;15.942;2023-07-20T11:39:09;29.70;90.50
24412;DHT22;12544;46.760;15.942;2023-07-20T11:41:48;29.50;92.40
24412;DHT22;12544;46.760;15.942;2023-07-20T11:44:16;29.20;93.50
24412;DHT22;12544;46.760;15.942;2023-07-20T11:46:43;29.10;93.00
24412;DHT22;12544;46.760;15.942;2023-07-20T11:49:12;29.10;94.70
24412;DHT22;12544;46.760;15.942;2023-07-20T11:51:39;29.30;93.60
24412;DHT22;12544;46.760;15.942;2023-07-20T11:54:06;29.60;92.60
24412;DHT22;12544;46.760;15.942;2023-07-20T11:56:32;29.70;92.00
24412;DHT22;12544;46.760;15.942;2023-07-20T11:58:58;29.80;93.70
24412;DHT22;12544;46.760;15.942;2023-07-20T12:01:28;29.80;94.10
24412;DHT22;12544;46.760;15.942;2023-07-20T12:03:59;29.90;94.40
24412;DHT22;12544;46.760;15.942;2023-07-20T12:06:25;29.90;92.30
24412;DHT22;12544;46.760;15.942;2023-07-20T12:08:55;30.20;92.70
24412;DHT22;12544;46.760;15.942;2023-07-20T12:13:58;30.40;92.50
24412;DHT22;12544;46.760;15.942;2023-07-20T12:16:27;30.50;91.00
24412;DHT22;12544;46.760;15.942;2023-07-20T12:19:00;30.60;90.80
24412;DHT22;12544;46.760;15.942;2023-07-20T12:21:29;30.40;90.50
24412;DHT22;12544;46.760;15.942;2023-07-20T12:23:57;30.50;92.40
24412;DHT22;12544;46.760;15.942;2023-07-20T12:26:23;30.50;91.70
24412;DHT22;12544;46.760;15.942;2023-07-20T12:28:49;30.60;91.20
24412;DHT22;12544;46.760;15.942;2023-07-20T12:31:15;30.90;90.90
24412;DHT22;12544;46.760;15.942;2023-07-20T12:33:41;31.20;90.30
24412;DHT22;12544;46.760;15.942;2023-07-20T12:36:08;31.40;89.10
24412;DHT22;12544;46.760;15.942;2023-07-20T12:38:33;31.70;89.30
24412;DHT22;12544;46.760;15.942;2023-07-20T12:41:01;31.80;88.10
24412;DHT22;12544;46.760;15.942;2023-07-20T12:43:26;31.60;85.40
24412;DHT22;12544;46.760;15.942;2023-07-20T12:45:52;31.60;83.50
24412;DHT22;12544;46.760;15.942;2023-07-20T12:48:18;31.70;83.90
24412;DHT22;12544;46.760;15.942;2023-07-20T12:50:43;31.80;84.20
24412;DHT22;12544;46.760;15.942;2023-07-20T12:53:09;31.80;83.50
24412;DHT22;12544;46.760;15.942;2023-07-20T12:55:35;31.70;81.60
24412;DHT22;12544;46.760;15.942;2023-07-20T12:58:00;31.80;84.10
24412;DHT22;12544;46.760;15.942;2023-07-20T13:00:26;31.80;81.80
24412;DHT22;12544;46.760;15.942;2023-07-20T13:02:52;32.00;80.30
24412;DHT22;12544;46.760;15.942;2023-07-20T13:05:18;32.00;80.80
24412;DHT22;12544;46.760;15.942;2023-07-20T13:07:43;31.90;79.90
24412;DHT22;12544;46.760;15.942;2023-07-20T13:10:10;31.80;78.30
24412;DHT22;12544;46.760;15.942;2023-07-20T13:12:37;31.70;80.30
24412;DHT22;12544;46.760;15.942;2023-07-20T13:15:04;31.70;84.20
24412;DHT22;12544;46.760;15.942;2023-07-20T13:17:37;31.60;85.30
24412;DHT22;12544;46.760;15.942;2023-07-20T13:20:04;31.40;86.60
24412;DHT22;12544;46.760;15.942;2023-07-20T13:22:30;31.00;82.70
24412;DHT22;12544;46.760;15.942;2023-07-20T13:24:56;30.50;86.70
24412;DHT22;12544;46.760;15.942;2023-07-20T13:27:21;30.40;85.90
24412;DHT22;12544;46.760;15.942;2023-07-20T13:29:47;30.50;87.70
24412;DHT22;12544;46.760;15.942;2023-07-20T13:32:14;30.70;89.10
24412;DHT22;12544;46.760;15.942;2023-07-20T13:34:40;30.70;83.40
24412;DHT22;12544;46.760;15.942;2023-07-20T13:37:06;30.60;85.10
24412;DHT22;12544;46.760;15.942;2023-07-20T13:39:32;30.60;85.70
24412;DHT22;12544;46.760;15.942;2023-07-20T13:41:57;30.70;85.00
24412;DHT22;12544;46.760;15.942;2023-07-20T13:44:23;30.20;91.70
24412;DHT22;12544;46.760;15.942;2023-07-20T13:46:49;29.80;92.20
24412;DHT22;12544;46.760;15.942;2023-07-20T13:49:15;28.70;94.20
24412;DHT22;12544;46.760;15.942;2023-07-20T13:51:42;28.10;95.80
24412;DHT22;12544;46.760;15.942;2023-07-20T13:54:08;27.30;96.50
24412;DHT22;12544;46.760;15.942;2023-07-20T13:56:34;26.80;98.30
24412;DHT22;12544;46.760;15.942;2023-07-20T13:59:00;26.40;98.80
24412;DHT22;12544;46.760;15.942;2023-07-20T14:01:26;25.90;99.50
24412;DHT22;12544;46.760;15.942;2023-07-20T14:03:54;25.50;99.90
24412;DHT22;12544;46.760;15.942;2023-07-20T14:06:20;25.30;99.90
24412;DHT22;12544;46.760;15.942;2023-07-20T14:08:45;25.00;99.90
24412;DHT22;12544;46.760;15.942;2023-07-20T14:11:12;24.80;99.90
24412;DHT22;12544;46.760;15.942;2023-07-20T14:13:38;24.80;99.90
24412;DHT22;12544;46.760;15.942;2023-07-20T14:16:05;24.60;99.90
24412;DHT22;12544;46.760;15.942;2023-07-20T14:18:30;24.50;99.90
24412;DHT22;12544;46.760;15.942;2023-07-20T14:20:56;24.40;99.90
24412;DHT22;12544;46.760;15.942;2023-07-20T14:23:22;24.20;99.90
24412;DHT22;12544;46.760;15.942;2023-07-20T14:25:48;24.20;99.90
24412;DHT22;12544;46.760;15.942;2023-07-20T14:28:14;24.20;99.90
24412;DHT22;12544;46.760;15.942;2023-07-20T14:30:41;24.00;99.90
24412;DHT22;12544;46.760;15.942;2023-07-20T14:33:07;23.90;99.90
24412;DHT22;12544;46.760;15.942;2023-07-20T14:35:33;23.80;99.90
24412;DHT22;12544;46.760;15.942;2023-07-20T14:37:59;23.70;99.90
24412;DHT22;12544;46.760;15.942;2023-07-20T14:40:25;23.60;99.90
24412;DHT22;12544;46.760;15.942;2023-07-20T14:42:50;23.50;99.90
24412;DHT22;12544;46.760;15.942;2023-07-20T14:45:17;23.40;99.90
24412;DHT22;12544;46.760;15.942;2023-07-20T14:47:43;23.30;99.90
24412;DHT22;12544;46.760;15.942;2023-07-20T14:50:09;23.00;99.90
24412;DHT22;12544;46.760;15.942;2023-07-20T14:52:35;22.90;99.90
24412;DHT22;12544;46.760;15.942;2023-07-20T14:55:00;22.70;99.90
24412;DHT22;12544;46.760;15.942;2023-07-20T14:57:26;22.60;99.90
24412;DHT22;12544;46.760;15.942;2023-07-20T14:59:52;22.40;99.90
24412;DHT22;12544;46.760;15.942;2023-07-20T15:02:19;22.20;99.90
24412;DHT22;12544;46.760;15.942;2023-07-20T15:04:49;22.00;99.90
24412;DHT22;12544;46.760;15.942;2023-07-20T15:07:19;21.80;99.90
24412;DHT22;12544;46.760;15.942;2023-07-20T15:09:45;21.80;99.90
24412;DHT22;12544;46.760;15.942;2023-07-20T15:12:11;21.70;99.90
24412;DHT22;12544;46.760;15.942;2023-07-20T15:14:41;21.60;99.90
24412;DHT22;12544;46.760;15.942;2023-07-20T15:17:08;21.50;99.90
24412;DHT22;12544;46.760;15.942;2023-07-20T15:19:33;21.50;99.90
24412;DHT22;12544;46.760;15.942;2023-07-20T15:22:02;21.50;99.90
24412;DHT22;12544;46.760;15.942;2023-07-20T15:24:29;21.50;99.90
24412;DHT22;12544;46.760;15.942;2023-07-20T15:26:55;21.50;99.90
24412;DHT22;12544;46.760;15.942;2023-07-20T15:29:23;21.50;99.90
24412;DHT22;12544;46.760;15.942;2023-07-20T15:31:48;21.50;99.90